createdAt,value
2019-06-01T00:00:30.644Z,100736.75
2019-06-01T00:03:02.491Z,100733.04
2019-06-01T00:05:34.102Z,100734.45
2019-06-01T00:08:05.859Z,100731.09
2019-06-01T00:10:37.514Z,100724.33
2019-06-01T00:13:09.266Z,100726.31
2019-06-01T00:15:42.047Z,100721.77
2019-06-01T00:18:13.496Z,100716.67
2019-06-01T00:20:48.392Z,100716.92
2019-06-01T00:23:20.795Z,100716.94
2019-06-01T00:25:52.933Z,100711.33
2019-06-01T00:28:25.564Z,100705.70
2019-06-01T00:30:56.988Z,100705.44
2019-06-01T00:33:28.849Z,100703.48
2019-06-01T00:36:01.322Z,100702.36
2019-06-01T00:38:34.818Z,100702.72
2019-06-01T00:41:06.269Z,100701.62
2019-06-01T00:43:38.028Z,100703.33
2019-06-01T00:46:09.632Z,100715.55
2019-06-01T00:48:44.199Z,100719.27
2019-06-01T00:51:15.929Z,100730.86
2019-06-01T00:53:49.420Z,100732.59
2019-06-01T00:56:21.108Z,100732.86
2019-06-01T00:58:53.939Z,100725.52
2019-06-01T01:01:26.252Z,100732.03
2019-06-01T01:03:58.116Z,100742.75
2019-06-01T01:06:32.539Z,100744.47
2019-06-01T01:09:08.357Z,100742.48
2019-06-01T01:11:40.051Z,100740.48
2019-06-01T01:14:12.518Z,100736.55
2019-06-01T01:16:45.536Z,100737.97
2019-06-01T01:19:17.881Z,100741.36
2019-06-01T01:21:52.140Z,100740.22
2019-06-01T01:24:24.059Z,100746.45
2019-06-01T01:26:56.796Z,100741.09
2019-06-01T01:29:29.309Z,100744.46
2019-06-01T01:32:01.379Z,100743.07
2019-06-01T01:34:33.739Z,100738.28
2019-06-01T01:37:05.802Z,100741.64
2019-06-01T01:39:37.409Z,100735.44
2019-06-01T01:42:09.153Z,100735.17
2019-06-01T01:44:40.835Z,100741.66
2019-06-01T01:47:14.445Z,100738.28
2019-06-01T01:49:47.149Z,100731.48
2019-06-01T01:52:19.004Z,100739.11
2019-06-01T01:54:50.760Z,100739.95
2019-06-01T01:57:22.824Z,100748.42
2019-06-01T01:59:57.375Z,100753.50
2019-06-01T02:02:31.048Z,100751.25
2019-06-01T02:05:02.707Z,100753.80
2019-06-01T02:07:35.076Z,100746.16
2019-06-01T02:10:08.227Z,100752.37
2019-06-01T02:12:39.713Z,100749.27
2019-06-01T02:15:11.385Z,100750.11
2019-06-01T02:17:43.938Z,100747.01
2019-06-01T02:20:15.698Z,100748.69
2019-06-01T02:22:49.813Z,100747.59
2019-06-01T02:25:22.390Z,100746.18
2019-06-01T02:27:55.050Z,100752.95
2019-06-01T02:30:28.093Z,100749.29
2019-06-01T02:33:00.695Z,100749.84
2019-06-01T02:35:37.307Z,100753.23
2019-06-01T02:38:09.055Z,100752.39
2019-06-01T02:40:40.811Z,100753.51
2019-06-01T02:43:15.982Z,100752.37
2019-06-01T02:45:47.397Z,100747.31
2019-06-01T02:48:19.462Z,100747.31
2019-06-01T02:50:51.320Z,100749.84
2019-06-01T02:53:23.115Z,100744.77
2019-06-01T02:55:57.876Z,100746.45
2019-06-01T02:58:30.176Z,100753.53
2019-06-01T03:01:23.026Z,100756.04
2019-06-01T03:03:57.619Z,100750.67
2019-06-01T03:06:31.422Z,100750.14
2019-06-01T03:09:06.683Z,100742.22
2019-06-01T03:11:40.976Z,100741.06
2019-06-01T03:14:14.000Z,100746.72
2019-06-01T03:16:51.385Z,100743.90
2019-06-01T03:19:25.910Z,100742.78
2019-06-01T03:22:03.773Z,100745.02
2019-06-01T03:24:37.407Z,100738.23
2019-06-01T03:27:12.447Z,100743.88
2019-06-01T03:29:47.367Z,100743.89
2019-06-01T03:32:35.373Z,100750.40
2019-06-01T03:34:55.442Z,100747.83
2019-06-01T03:37:28.303Z,100744.72
2019-06-01T03:40:01.062Z,100754.63
2019-06-01T03:42:33.110Z,100756.88
2019-06-01T03:45:07.548Z,100752.67
2019-06-01T03:47:39.285Z,100755.45
2019-06-01T03:50:11.252Z,100750.05
2019-06-01T03:52:43.315Z,100754.27
2019-06-01T03:55:15.171Z,100752.85
2019-06-01T03:57:46.928Z,100756.52
2019-06-01T04:00:20.320Z,100757.60
2019-06-01T04:02:51.672Z,100750.22
2019-06-01T04:05:24.450Z,100758.66
2019-06-01T04:07:58.635Z,100758.39
2019-06-01T04:10:30.524Z,100756.39
2019-06-01T04:13:03.522Z,100762.62
2019-06-01T04:15:35.935Z,100761.73
2019-06-01T04:18:08.602Z,100768.23
2019-06-01T04:20:41.767Z,100778.94
2019-06-01T04:23:13.206Z,100771.52
2019-06-01T04:25:46.009Z,100774.27
2019-06-01T04:28:19.170Z,100763.78
2019-06-01T04:30:50.768Z,100764.81
2019-06-01T04:33:23.608Z,100768.95
2019-06-01T04:35:55.662Z,100786.20
2019-06-01T04:38:31.008Z,100784.14
2019-06-01T04:41:03.558Z,100780.47
2019-06-01T04:43:36.060Z,100782.92
2019-06-01T04:46:08.205Z,100780.58
2019-06-01T04:48:41.104Z,100783.02
2019-06-01T04:51:13.506Z,100786.67
2019-06-01T04:53:45.459Z,100788.84
2019-06-01T04:56:18.728Z,100781.65
2019-06-01T04:58:50.482Z,100786.20
2019-06-01T05:01:22.245Z,100787.19
2019-06-01T05:03:53.900Z,100783.86
2019-06-01T05:06:25.543Z,100778.95
2019-06-01T05:08:57.174Z,100778.26
2019-06-01T05:11:29.377Z,100783.32
2019-06-01T05:14:00.718Z,100783.23
2019-06-01T05:16:32.728Z,100776.27
2019-06-01T05:19:05.958Z,100777.91
2019-06-01T05:21:37.427Z,100777.19
2019-06-01T05:24:10.588Z,100777.20
2019-06-01T05:26:44.935Z,100778.69
2019-06-01T05:29:18.122Z,100777.73
2019-06-01T05:31:51.708Z,100773.30
2019-06-01T05:34:23.790Z,100769.41
2019-06-01T05:36:56.768Z,100769.41
2019-06-01T05:39:28.314Z,100768.50
2019-06-01T05:42:00.181Z,100773.92
2019-06-01T05:44:31.964Z,100774.64
2019-06-01T05:47:03.987Z,100773.06
2019-06-01T05:49:35.785Z,100773.06
2019-06-01T05:52:07.417Z,100779.06
2019-06-01T05:54:38.957Z,100778.86
2019-06-01T05:57:11.010Z,100777.97
2019-06-01T05:59:43.500Z,100770.98
2019-06-01T06:02:17.454Z,100769.25
2019-06-01T06:04:49.075Z,100767.10
2019-06-01T06:07:20.820Z,100772.59
2019-06-01T06:09:52.593Z,100767.69
2019-06-01T06:12:24.330Z,100766.76
2019-06-01T06:14:57.519Z,100773.16
2019-06-01T06:17:29.175Z,100773.61
2019-06-01T06:20:01.343Z,100775.03
2019-06-01T06:22:35.156Z,100772.88
2019-06-01T06:25:07.249Z,100772.45
2019-06-01T06:27:39.170Z,100774.12
2019-06-01T06:30:12.817Z,100777.90
2019-06-01T06:32:44.731Z,100776.83
2019-06-01T06:35:17.749Z,100776.59
2019-06-01T06:37:49.884Z,100776.34
2019-06-01T06:40:24.279Z,100783.73
2019-06-01T06:42:57.696Z,100776.83
2019-06-01T06:45:31.981Z,100781.20
2019-06-01T06:48:03.724Z,100787.66
2019-06-01T06:50:35.323Z,100780.27
2019-06-01T06:53:08.993Z,100778.31
2019-06-01T06:55:40.716Z,100782.76
2019-06-01T06:58:13.765Z,100781.89
2019-06-01T07:00:45.403Z,100789.48
2019-06-01T07:03:17.198Z,100779.58
2019-06-01T07:05:49.649Z,100782.73
2019-06-01T07:08:21.873Z,100778.67
2019-06-01T07:10:53.794Z,100784.41
2019-06-01T07:13:25.496Z,100783.59
2019-06-01T07:15:57.598Z,100783.58
2019-06-01T07:18:30.090Z,100784.33
2019-06-01T07:21:01.529Z,100789.30
2019-06-01T07:23:33.548Z,100791.38
2019-06-01T07:26:06.197Z,100785.95
2019-06-01T07:28:39.553Z,100788.52
2019-06-01T07:31:12.537Z,100789.48
2019-06-01T07:33:44.136Z,100789.63
2019-06-01T07:36:18.110Z,100791.33
2019-06-01T07:38:49.553Z,100790.55
2019-06-01T07:41:22.640Z,100786.00
2019-06-01T07:43:54.496Z,100789.44
2019-06-01T07:46:26.924Z,100793.05
2019-06-01T07:48:59.752Z,100796.23
2019-06-01T07:51:31.687Z,100793.26
2019-06-01T07:54:04.395Z,100787.28
2019-06-01T07:56:35.954Z,100786.27
2019-06-01T07:59:07.798Z,100788.58
2019-06-01T08:01:41.305Z,100784.17
2019-06-01T08:04:12.954Z,100788.52
2019-06-01T08:06:48.103Z,100792.91
2019-06-01T08:09:17.800Z,100791.59
2019-06-01T08:11:49.475Z,100792.05
2019-06-01T08:14:22.538Z,100790.48
2019-06-01T08:16:54.325Z,100788.73
2019-06-01T08:19:28.039Z,100787.42
2019-06-01T08:21:59.661Z,100775.17
2019-06-01T08:24:32.841Z,100779.60
2019-06-01T08:27:05.512Z,100776.89
2019-06-01T08:29:36.769Z,100781.26
2019-06-01T08:32:08.418Z,100773.33
2019-06-01T08:34:43.354Z,100777.19
2019-06-01T08:37:14.802Z,100774.31
2019-06-01T08:39:46.245Z,100775.20
2019-06-01T08:42:17.975Z,100776.44
2019-06-01T08:44:49.652Z,100770.45
2019-06-01T08:47:21.416Z,100768.77
2019-06-01T08:49:53.684Z,100771.02
2019-06-01T08:52:25.973Z,100768.63
2019-06-01T08:54:57.403Z,100768.08
2019-06-01T08:57:30.367Z,100769.19
2019-06-01T09:00:02.212Z,100769.14
2019-06-01T09:02:34.964Z,100770.82
2019-06-01T09:05:23.364Z,100766.41
2019-06-01T09:07:42.843Z,100765.23
2019-06-01T09:10:14.854Z,100763.03
2019-06-01T09:12:46.250Z,100765.69
2019-06-01T09:15:18.876Z,100766.14
2019-06-01T09:17:50.788Z,100763.21
2019-06-01T09:20:22.337Z,100768.58
2019-06-01T09:22:54.101Z,100762.45
2019-06-01T09:25:25.904Z,100758.81
2019-06-01T09:27:58.132Z,100759.36
2019-06-01T09:30:32.187Z,100758.27
2019-06-01T09:33:03.885Z,100761.14
2019-06-01T09:35:52.609Z,100757.05
2019-06-01T09:38:11.401Z,100766.82
2019-06-01T09:40:46.846Z,100757.48
2019-06-01T09:43:19.723Z,100753.22
2019-06-01T09:45:53.183Z,100749.61
2019-06-01T09:48:24.578Z,100749.94
2019-06-01T09:50:56.323Z,100757.16
2019-06-01T09:53:31.062Z,100754.80
2019-06-01T09:56:05.545Z,100749.10
2019-06-01T09:58:36.938Z,100742.55
2019-06-01T10:01:08.718Z,100742.75
2019-06-01T10:03:41.149Z,100740.78
2019-06-01T10:06:14.156Z,100734.59
2019-06-01T10:08:45.895Z,100737.67
2019-06-01T10:11:17.599Z,100734.52
2019-06-01T10:13:49.203Z,100731.23
2019-06-01T10:16:22.205Z,100730.61
2019-06-01T10:19:10.222Z,100731.68
2019-06-01T10:21:57.954Z,100728.85
2019-06-01T10:24:30.970Z,100729.55
2019-06-01T10:27:04.825Z,100729.81
2019-06-01T10:29:39.993Z,100732.48
2019-06-01T10:32:11.756Z,100718.44
2019-06-01T10:34:43.548Z,100727.64
2019-06-01T10:37:15.450Z,100725.69
2019-06-01T10:39:49.244Z,100722.64
2019-06-01T10:42:23.476Z,100721.28
2019-06-01T10:44:56.459Z,100722.80
2019-06-01T10:47:28.011Z,100718.73
2019-06-01T10:50:03.655Z,100719.80
2019-06-01T10:52:36.556Z,100716.63
2019-06-01T10:55:08.505Z,100716.50
2019-06-01T10:57:40.622Z,100715.44
2019-06-01T11:00:14.425Z,100699.38
2019-06-01T11:02:45.308Z,100706.53
2019-06-01T11:05:18.278Z,100701.92
2019-06-01T11:07:49.835Z,100707.64
2019-06-01T11:10:24.268Z,100702.16
2019-06-01T11:12:56.055Z,100692.47
2019-06-01T11:15:28.021Z,100688.02
2019-06-01T11:18:01.489Z,100695.09
2019-06-01T11:20:33.039Z,100685.61
2019-06-01T11:23:05.700Z,100685.70
2019-06-01T11:25:38.091Z,100680.33
2019-06-01T11:28:11.273Z,100681.88
2019-06-01T11:30:43.968Z,100681.98
2019-06-01T11:33:16.385Z,100678.55
2019-06-01T11:35:48.887Z,100675.10
2019-06-01T11:38:21.773Z,100672.05
2019-06-01T11:40:53.449Z,100670.29
2019-06-01T11:43:27.547Z,100668.09
2019-06-01T11:45:59.304Z,100675.50
2019-06-01T11:48:30.965Z,100665.67
2019-06-01T11:51:02.815Z,100669.09
2019-06-01T11:53:39.773Z,100660.76
2019-06-01T11:56:11.597Z,100656.28
